Time;durP1;ratioP1;P1;durP2;ratioP2;P2;SDS_P1;SDS_P2;PMS_P1;PMS_P2;Temp;Humidity;BMP_temperature;BMP_pressure;BME280_temperature;BME280_humidity;BME280_pressure;Samples;Min_cycle;Max_cycle;Signal;HPM_P1;HPM_P2
2022/04/17 00:00:48;;;;;;;12.60;6.40;;;;;;;1.99;74.46;102618.40;104938;1274;73972;-71
2022/04/17 00:03:15;;;;;;;11.80;6.40;;;;;;;1.96;74.68;102615.23;105183;1271;60357;-73
2022/04/17 00:05:41;;;;;;;9.40;5.30;;;;;;;1.94;74.71;102615.17;105111;1271;61670;-74
2022/04/17 00:08:08;;;;;;;12.10;6.30;;;;;;;1.91;74.74;102613.77;105238;1271;60539;-73
2022/04/17 00:10:35;;;;;;;10.60;6.70;;;;;;;1.87;74.75;102611.67;105320;1271;71476;-72
2022/04/17 00:13:01;;;;;;;11.10;7.00;;;;;;;1.84;74.98;102612.16;105142;1271;73126;-74
2022/04/17 00:15:28;;;;;;;10.90;6.20;;;;;;;1.80;75.11;102609.53;105266;1271;60430;-73
2022/04/17 00:17:55;;;;;;;11.70;6.80;;;;;;;1.76;75.21;102607.79;105076;1271;60334;-70
2022/04/17 00:20:21;;;;;;;11.00;5.80;;;;;;;1.74;75.55;102611.05;105196;1271;73141;-71
2022/04/17 00:22:48;;;;;;;10.80;6.40;;;;;;;1.72;75.82;102608.69;105315;1271;72440;-70
2022/04/17 00:25:16;;;;;;;10.20;6.10;;;;;;;1.70;75.75;102610.70;105265;1271;72910;-72
2022/04/17 00:27:43;;;;;;;12.50;5.80;;;;;;;1.67;75.59;102610.49;105427;1270;61042;-70
2022/04/17 00:30:10;;;;;;;9.70;5.20;;;;;;;1.64;75.94;102606.45;105142;1271;60752;-73
2022/04/17 00:32:38;;;;;;;13.90;6.40;;;;;;;1.60;76.06;102604.49;105399;1269;74115;-73
2022/04/17 00:35:06;;;;;;;8.90;5.70;;;;;;;1.58;76.25;102604.10;105290;1271;72552;-72
2022/04/17 00:37:33;;;;;;;12.90;6.60;;;;;;;1.55;76.29;102603.35;105315;1271;73541;-73
2022/04/17 00:40:00;;;;;;;12.60;6.00;;;;;;;1.51;76.45;102603.16;105057;1271;60309;-73
2022/04/17 00:42:26;;;;;;;13.20;6.70;;;;;;;1.50;76.50;102599.23;105291;1271;61572;-74
2022/04/17 00:44:53;;;;;;;15.30;7.30;;;;;;;1.48;76.71;102597.23;105231;1271;75378;-74
2022/04/17 00:47:20;;;;;;;11.10;6.00;;;;;;;1.46;76.64;102596.27;105293;1271;60456;-72
2022/04/17 00:49:47;;;;;;;10.50;6.40;;;;;;;1.44;76.90;102597.39;105198;1270;73931;-74
2022/04/17 00:52:14;;;;;;;12.60;7.10;;;;;;;1.42;77.05;102591.02;105092;1271;61141;-73
2022/04/17 00:54:46;;;;;;;8.50;6.00;;;;;;;1.39;76.96;102592.38;105002;1271;60786;-71
2022/04/17 00:57:17;;;;;;;9.70;5.00;;;;;;;1.37;77.27;102585.15;105104;1272;74231;-75
2022/04/17 00:59:46;;;;;;;13.30;7.20;;;;;;;1.36;77.33;102579.44;105265;1271;71614;-72
2022/04/17 01:02:14;;;;;;;9.00;5.80;;;;;;;1.35;77.38;102573.56;105354;1271;74542;-74
2022/04/17 01:04:43;;;;;;;12.00;6.90;;;;;;;1.34;77.43;102573.95;105002;1274;61507;-74
2022/04/17 01:07:10;;;;;;;9.40;5.90;;;;;;;1.33;77.45;102571.55;105151;1272;61591;-73
2022/04/17 01:09:38;;;;;;;10.40;6.30;;;;;;;1.33;77.44;102572.62;105086;1274;74147;-70
2022/04/17 01:12:08;;;;;;;8.10;5.50;;;;;;;1.32;77.45;102570.73;105162;1271;71394;-73
2022/04/17 01:14:37;;;;;;;12.40;6.30;;;;;;;1.32;77.61;102575.08;105097;1271;72674;-70
2022/04/17 01:17:05;;;;;;;8.70;6.00;;;;;;;1.32;77.48;102570.91;105320;1270;60701;-71
2022/04/17 01:19:37;;;;;;;10.70;5.70;;;;;;;1.31;77.39;102573.59;105260;1271;60504;-74
2022/04/17 01:22:08;;;;;;;8.80;5.50;;;;;;;1.30;77.47;102572.04;105222;1271;74106;-72
2022/04/17 01:27:21;;;;;;;11.50;6.10;;;;;;;1.30;77.58;102566.32;105319;1270;73204;-74
2022/04/17 01:29:48;;;;;;;13.30;6.50;;;;;;;1.29;77.73;102565.46;105044;1271;60449;-70
2022/04/17 01:32:15;;;;;;;12.00;6.30;;;;;;;1.29;77.70;102563.02;105080;1271;60522;-73
2022/04/17 01:34:43;;;;;;;7.70;5.20;;;;;;;1.29;77.63;102563.39;105195;1271;73858;-71
2022/04/17 01:37:10;;;;;;;9.70;5.90;;;;;;;1.28;77.57;102560.61;105345;1270;72432;-72
2022/04/17 01:39:37;;;;;;;10.30;5.30;;;;;;;1.27;77.48;102560.15;104954;1271;73098;-73
2022/04/17 01:42:04;;;;;;;9.00;5.40;;;;;;;1.26;77.64;102553.23;105236;1271;61813;-71
2022/04/17 01:44:31;;;;;;;9.80;5.00;;;;;;;1.27;77.66;102547.95;105251;1271;61124;-70
2022/04/17 01:46:59;;;;;;;9.60;5.30;;;;;;;1.29;77.81;102541.77;105067;1274;74075;-73
2022/04/17 01:49:26;;;;;;;9.70;5.20;;;;;;;1.31;77.86;102536.61;105236;1274;70345;-71
2022/04/17 01:51:54;;;;;;;9.60;5.80;;;;;;;1.31;77.67;102534.02;105463;1269;73112;-71
2022/04/17 01:54:23;;;;;;;9.30;5.60;;;;;;;1.29;77.58;102534.09;105429;1271;61162;-73
2022/04/17 01:56:50;;;;;;;9.50;5.10;;;;;;;1.27;77.53;102531.08;105397;1270;60568;-72
2022/04/17 01:59:18;;;;;;;13.50;6.50;;;;;;;1.23;77.21;102533.15;105317;1271;73895;-73
2022/04/17 02:01:45;;;;;;;9.90;5.60;;;;;;;1.18;76.97;102529.85;104942;1274;71192;-71
2022/04/17 02:04:12;;;;;;;7.80;5.30;;;;;;;1.14;76.93;102531.79;105307;1271;72976;-73
2022/04/17 02:06:40;;;;;;;7.90;4.50;;;;;;;1.11;76.83;102531.41;104956;1271;62249;-73
2022/04/17 02:09:08;;;;;;;9.60;5.70;;;;;;;1.08;77.12;102535.53;105031;1274;60835;-72
2022/04/17 02:11:38;;;;;;;8.90;5.30;;;;;;;1.05;76.79;102534.45;105147;1271;75190;-73
2022/04/17 02:14:09;;;;;;;12.90;6.80;;;;;;;1.02;77.23;102529.54;105215;1271;71182;-72
2022/04/17 02:16:37;;;;;;;11.40;6.10;;;;;;;1.02;77.85;102533.56;105125;1271;73970;-72
2022/04/17 02:19:04;;;;;;;9.40;6.60;;;;;;;1.00;77.68;102533.46;105010;1272;61578;-70
2022/04/17 02:21:31;;;;;;;11.60;7.00;;;;;;;0.97;77.58;102529.39;105304;1271;60567;-74
2022/04/17 02:24:00;;;;;;;7.90;5.50;;;;;;;0.92;77.55;102525.45;105179;1271;74412;-70
2022/04/17 02:26:28;;;;;;;13.60;6.80;;;;;;;0.91;77.63;102528.45;105351;1271;71459;-71
2022/04/17 02:28:56;;;;;;;13.80;7.10;;;;;;;0.87;77.58;102531.42;105048;1271;75084;-70
2022/04/17 02:31:24;;;;;;;17.40;7.20;;;;;;;0.81;77.75;102531.48;105142;1271;61720;-72
2022/04/17 02:33:51;;;;;;;10.90;6.40;;;;;;;0.77;77.90;102529.23;105281;1272;60696;-72
2022/04/17 02:36:19;;;;;;;11.90;6.30;;;;;;;0.72;78.04;102525.97;105270;1271;74574;-72
2022/04/17 02:38:46;;;;;;;11.40;6.20;;;;;;;0.68;78.17;102523.52;105373;1271;71223;-71
2022/04/17 02:41:12;;;;;;;10.60;6.00;;;;;;;0.66;78.44;102518.58;105196;1271;73927;-74
2022/04/17 02:43:39;;;;;;;8.60;6.10;;;;;;;0.63;78.32;102513.48;105353;1271;61604;-73
2022/04/17 02:46:05;;;;;;;13.10;6.30;;;;;;;0.59;78.35;102512.60;105427;1271;60726;-70
2022/04/17 02:48:34;;;;;;;11.00;6.50;;;;;;;0.56;78.67;102510.80;105182;1271;75454;-72
2022/04/17 02:51:02;;;;;;;11.00;6.50;;;;;;;0.54;79.01;102503.59;105014;1271;72397;-72
2022/04/17 02:53:34;;;;;;;12.80;6.60;;;;;;;0.51;79.18;102504.41;105241;1271;73632;-73
2022/04/17 02:56:01;;;;;;;10.80;6.70;;;;;;;0.47;79.28;102507.86;105186;1271;60539;-71
2022/04/17 02:58:29;;;;;;;15.70;6.80;;;;;;;0.45;79.42;102506.56;105487;1271;60807;-71
2022/04/17 03:06:26;;;;;;;10.30;6.70;;;;;;;0.33;79.71;102512.82;105228;1271;71944;-70
2022/04/17 03:08:54;;;;;;;12.60;6.90;;;;;;;0.29;79.71;102506.73;105141;1271;60728;-70
2022/04/17 03:11:20;;;;;;;12.80;6.80;;;;;;;0.25;79.92;102501.50;105191;1271;60437;-74
2022/04/17 03:13:48;;;;;;;9.30;6.30;;;;;;;0.20;80.11;102499.78;105326;1271;60461;-70
2022/04/17 03:16:15;;;;;;;14.10;7.20;;;;;;;0.16;80.20;102494.19;105184;1271;71397;-72
2022/04/17 03:18:43;;;;;;;14.40;7.80;;;;;;;0.13;80.45;102492.43;105264;1271;72689;-74
2022/04/17 03:21:10;;;;;;;10.40;6.80;;;;;;;0.08;80.32;102488.78;105095;1274;60738;-74
2022/04/17 03:23:37;;;;;;;14.50;7.20;;;;;;;0.05;80.93;102488.03;105205;1271;60632;-74
2022/04/17 03:26:06;;;;;;;13.40;6.70;;;;;;;0.04;81.24;102492.27;105310;1270;74055;-73
2022/04/17 03:28:33;;;;;;;11.60;7.40;;;;;;;0.00;81.31;102491.71;105375;1271;72403;-72
2022/04/17 03:30:59;;;;;;;17.10;7.80;;;;;;;-0.04;81.31;102489.78;105233;1271;60437;-73
2022/04/17 03:33:28;;;;;;;11.10;6.10;;;;;;;-0.07;81.73;102485.73;105303;1271;61672;-73
2022/04/17 03:36:05;;;;;;;15.40;8.20;;;;;;;-0.09;81.84;102482.15;105194;1271;60996;-74
2022/04/17 03:38:32;;;;;;;9.30;5.60;;;;;;;-0.10;81.99;102479.08;105159;1271;74564;-73
2022/04/17 03:40:59;;;;;;;10.90;6.80;;;;;;;-0.13;81.96;102480.91;105169;1271;60427;-71
2022/04/17 03:43:39;;;;;;;13.40;7.70;;;;;;;-0.16;82.07;102476.70;105204;1270;74031;-73
2022/04/17 03:46:05;;;;;;;10.40;6.50;;;;;;;-0.20;82.02;102476.88;105315;1270;61336;-72
2022/04/17 03:48:32;;;;;;;15.40;7.50;;;;;;;-0.23;82.30;102480.83;105194;1271;61782;-74
2022/04/17 03:50:59;;;;;;;15.60;6.80;;;;;;;-0.27;82.32;102480.12;105238;1271;77272;-70
2022/04/17 03:53:25;;;;;;;15.20;7.30;;;;;;;-0.31;82.41;102477.46;105337;1271;71509;-72
2022/04/17 03:55:52;;;;;;;13.40;7.10;;;;;;;-0.33;82.50;102477.39;105283;1271;73235;-72
2022/04/17 03:58:19;;;;;;;12.60;6.80;;;;;;;-0.37;82.61;102471.48;105295;1271;60319;-71
2022/04/17 04:00:47;;;;;;;10.10;6.60;;;;;;;-0.38;82.86;102476.73;105158;1271;60493;-73
2022/04/17 04:03:14;;;;;;;10.40;5.90;;;;;;;-0.41;83.03;102474.22;105366;1271;74015;-72
2022/04/17 04:05:41;;;;;;;8.40;5.80;;;;;;;-0.43;83.23;102468.71;105143;1272;71390;-71
2022/04/17 04:08:08;;;;;;;12.30;7.20;;;;;;;-0.44;83.47;102461.98;105246;1271;74034;-73
2022/04/17 04:10:35;;;;;;;14.80;8.10;;;;;;;-0.46;83.63;102460.83;105218;1271;62307;-72
2022/04/17 04:13:03;;;;;;;10.90;7.00;;;;;;;-0.47;83.78;102455.16;105227;1271;60599;-72
2022/04/17 04:15:30;;;;;;;12.80;7.20;;;;;;;-0.47;83.85;102449.94;105224;1271;75111;-74
2022/04/17 04:17:57;;;;;;;11.30;6.60;;;;;;;-0.48;83.91;102445.98;105293;1271;72467;-72
2022/04/17 04:20:23;;;;;;;15.80;7.20;;;;;;;-0.49;83.87;102445.15;105299;1271;71923;-73
2022/04/17 04:22:51;;;;;;;13.60;8.30;;;;;;;-0.50;84.05;102442.22;105048;1271;61733;-75
2022/04/17 04:25:25;;;;;;;14.00;7.60;;;;;;;-0.51;83.88;102442.10;105233;1271;61682;-73
2022/04/17 04:30:37;;;;;;;;;;;;;;;-0.51;84.14;102445.41;105301;1271;70368;-72
2022/04/17 04:33:03;;;;;;;16.30;7.20;;;;;;;-0.52;84.11;102446.98;105254;1271;60773;-74
2022/04/17 04:35:30;;;;;;;11.60;7.20;;;;;;;-0.51;84.31;102449.58;105143;1271;62770;-74
2022/04/17 04:37:59;;;;;;;12.20;7.60;;;;;;;-0.50;84.47;102454.95;104979;1271;60527;-73
2022/04/17 04:40:28;;;;;;;9.80;6.10;;;;;;;-0.48;84.48;102454.00;105418;1271;75338;-74
2022/04/17 04:42:59;;;;;;;10.70;7.00;;;;;;;-0.45;84.78;102454.75;105348;1271;71423;-74
2022/04/17 04:48:13;;;;;;;10.70;6.80;;;;;;;-0.38;84.56;102449.62;105166;1271;61391;-73
2022/04/17 04:50:40;;;;;;;11.80;6.00;;;;;;;-0.34;84.60;102449.09;105438;1271;61629;-73
2022/04/17 04:53:08;;;;;;;11.50;6.20;;;;;;;-0.30;84.51;102448.22;105023;1271;75179;-74
2022/04/17 04:55:34;;;;;;;11.40;7.20;;;;;;;-0.25;84.47;102448.02;105314;1271;71497;-71
2022/04/17 04:58:01;;;;;;;14.30;6.50;;;;;;;-0.18;84.45;102444.48;105352;1271;72169;-72
2022/04/17 05:00:28;;;;;;;13.30;6.90;;;;;;;-0.13;84.18;102441.63;105355;1271;61272;-72
2022/04/17 05:02:54;;;;;;;11.30;6.60;;;;;;;-0.07;84.21;102441.21;105049;1271;61605;-72
2022/04/17 05:05:21;;;;;;;11.30;5.70;;;;;;;0.00;84.00;102444.77;105292;1271;73953;-71
2022/04/17 05:07:48;;;;;;;14.00;6.80;;;;;;;0.07;84.00;102451.95;105281;1271;60421;-71
2022/04/17 05:10:14;;;;;;;10.10;5.70;;;;;;;0.14;83.70;102449.39;105334;1271;60406;-72
2022/04/17 05:12:45;;;;;;;10.20;4.60;;;;;;;0.22;83.60;102447.00;105403;1271;61750;-74
2022/04/17 05:15:11;;;;;;;11.70;4.90;;;;;;;0.31;83.48;102448.34;105295;1271;60873;-72
2022/04/17 05:17:38;;;;;;;16.80;8.20;;;;;;;0.39;83.25;102451.80;105213;1271;74049;-71
2022/04/17 05:20:05;;;;;;;15.50;7.50;;;;;;;0.48;82.96;102454.05;105305;1271;71538;-71
2022/04/17 05:22:33;;;;;;;12.10;7.50;;;;;;;0.57;82.89;102450.52;105333;1271;72327;-72
2022/04/17 05:24:59;;;;;;;10.80;7.00;;;;;;;0.67;82.70;102450.07;105310;1271;61407;-72
2022/04/17 05:27:27;;;;;;;13.20;6.70;;;;;;;0.78;82.53;102445.26;105372;1271;61648;-72
2022/04/17 05:29:55;;;;;;;10.60;6.10;;;;;;;0.88;82.19;102445.16;105055;1271;74090;-70
2022/04/17 05:32:22;;;;;;;12.40;6.20;;;;;;;0.99;82.05;102445.52;105390;1271;72553;-70
2022/04/17 05:34:49;;;;;;;9.30;6.30;;;;;;;1.10;81.80;102451.31;105127;1271;74240;-73
2022/04/17 05:37:15;;;;;;;11.90;6.00;;;;;;;1.21;81.54;102453.91;105223;1271;61439;-73
2022/04/17 05:39:42;;;;;;;14.80;6.80;;;;;;;1.33;81.29;102457.20;105358;1271;61575;-71
2022/04/17 05:42:10;;;;;;;11.90;5.70;;;;;;;1.44;80.81;102458.27;105430;1271;75340;-70
2022/04/17 05:44:43;;;;;;;13.50;7.00;;;;;;;1.55;80.65;102461.91;105316;1270;70176;-69
2022/04/17 05:47:10;;;;;;;9.30;6.00;;;;;;;1.68;80.33;102467.41;105055;1271;74183;-72
2022/04/17 05:49:37;;;;;;;9.90;5.30;;;;;;;1.80;79.70;102468.40;105253;1270;60841;-73
2022/04/17 05:52:04;;;;;;;7.20;4.80;;;;;;;1.91;79.36;102469.42;105339;1271;61669;-73
2022/04/17 05:54:30;;;;;;;7.80;5.00;;;;;;;2.03;79.07;102468.88;105364;1271;75122;-71
2022/04/17 05:56:57;;;;;;;11.40;6.00;;;;;;;2.16;78.91;102477.12;105324;1271;72639;-74
2022/04/17 05:59:24;;;;;;;7.80;5.10;;;;;;;2.29;78.76;102477.67;105332;1271;74088;-72
2022/04/17 06:01:50;;;;;;;12.90;6.00;;;;;;;2.43;78.82;102476.83;105141;1271;61420;-71
2022/04/17 06:04:17;;;;;;;8.90;5.40;;;;;;;2.56;78.67;102476.84;105117;1273;60436;-74
2022/04/17 06:06:44;;;;;;;7.70;4.70;;;;;;;2.70;78.39;102476.45;105271;1271;74574;-69
2022/04/17 06:09:10;;;;;;;8.60;5.00;;;;;;;2.85;77.47;102473.63;104910;1271;60542;-71
2022/04/17 06:11:37;;;;;;;7.80;3.90;;;;;;;3.00;76.90;102471.59;105188;1271;60447;-72
2022/04/17 06:14:03;;;;;;;7.30;4.70;;;;;;;3.13;76.00;102464.61;105395;1271;62808;-73
2022/04/17 06:16:32;;;;;;;8.70;4.50;;;;;;;3.27;75.91;102474.18;105322;1271;60443;-72
2022/04/17 06:18:59;;;;;;;5.70;3.50;;;;;;;3.42;74.80;102472.65;105038;1271;73939;-69
2022/04/17 06:21:25;;;;;;;5.60;3.30;;;;;;;3.55;74.34;102467.02;105231;1271;71394;-72
2022/04/17 06:23:52;;;;;;;7.60;3.80;;;;;;;3.69;73.97;102467.09;105403;1271;72923;-75
2022/04/17 06:26:19;;;;;;;5.60;3.40;;;;;;;3.82;73.16;102467.95;105329;1271;60449;-69
2022/04/17 06:28:45;;;;;;;5.90;3.50;;;;;;;3.96;72.75;102464.54;105274;1271;61677;-73
2022/04/17 06:31:12;;;;;;;8.10;4.00;;;;;;;4.08;71.90;102462.94;105083;1271;75151;-71
2022/04/17 06:33:38;;;;;;;6.50;3.80;;;;;;;4.18;70.87;102465.02;105350;1271;72336;-70
2022/04/17 06:36:06;;;;;;;6.00;3.50;;;;;;;4.29;70.47;102464.02;105406;1271;72771;-71
2022/04/17 06:38:32;;;;;;;5.30;3.80;;;;;;;4.39;70.07;102464.79;105419;1271;60439;-70
2022/04/17 06:40:59;;;;;;;5.60;2.70;;;;;;;4.50;69.71;102463.64;105349;1271;61363;-72
2022/04/17 06:43:26;;;;;;;4.60;3.50;;;;;;;4.58;69.53;102464.56;105423;1271;74430;-72
2022/04/17 06:45:53;;;;;;;6.40;3.50;;;;;;;4.69;69.63;102467.59;105309;1271;71401;-73
2022/04/17 06:48:22;;;;;;;5.10;2.60;;;;;;;4.81;69.25;102470.20;105084;1271;73993;-73
2022/04/17 06:50:52;;;;;;;5.30;3.30;;;;;;;4.93;68.76;102473.88;105509;1271;60420;-70
2022/04/17 06:53:19;;;;;;;5.50;3.20;;;;;;;5.04;68.41;102471.62;105402;1271;60551;-72
2022/04/17 06:55:48;;;;;;;20.30;13.60;;;;;;;5.17;68.70;102472.35;105390;1271;75176;-72
2022/04/17 06:58:17;;;;;;;5.80;3.10;;;;;;;5.29;67.53;102470.54;105357;1271;72549;-74
2022/04/17 07:00:44;;;;;;;7.20;3.50;;;;;;;5.40;66.75;102466.88;105214;1271;71900;-72
2022/04/17 07:03:11;;;;;;;5.70;3.60;;;;;;;5.49;66.33;102465.09;105169;1271;60447;-72
2022/04/17 07:05:37;;;;;;;5.50;3.40;;;;;;;5.55;65.74;102460.32;105269;1271;60522;-71
2022/04/17 07:08:06;;;;;;;4.80;3.10;;;;;;;5.58;65.14;102457.66;105416;1271;60519;-67
2022/04/17 07:10:38;;;;;;;4.00;2.60;;;;;;;5.68;65.68;102458.44;105348;1271;72402;-67
2022/04/17 07:13:07;;;;;;;5.20;3.00;;;;;;;5.81;65.41;102460.73;105315;1271;73047;-68
2022/04/17 07:15:34;;;;;;;4.80;2.80;;;;;;;5.92;65.50;102463.36;105253;1270;60561;-67
2022/04/17 07:18:00;;;;;;;8.60;3.90;;;;;;;6.06;65.83;102466.50;105247;1271;60771;-67
2022/04/17 07:20:27;;;;;;;6.00;3.40;;;;;;;6.21;65.71;102467.99;105350;1271;73726;-71
2022/04/17 07:22:53;;;;;;;6.60;3.20;;;;;;;6.37;65.85;102468.30;105099;1271;60459;-69
2022/04/17 07:25:20;;;;;;;3.70;2.40;;;;;;;6.53;65.25;102466.15;105232;1271;73012;-70
2022/04/17 07:27:49;;;;;;;6.70;3.50;;;;;;;6.65;64.71;102464.45;105231;1271;60460;-69
2022/04/17 07:30:21;;;;;;;5.60;3.10;;;;;;;6.77;65.13;102468.17;105409;1270;60985;-69
2022/04/17 07:32:50;;;;;;;5.50;3.50;;;;;;;6.93;64.62;102467.80;105406;1271;74208;-70
2022/04/17 07:35:18;;;;;;;4.40;2.70;;;;;;;7.05;63.98;102459.73;105436;1270;72360;-68
2022/04/17 07:37:53;;;;;;;5.40;3.20;;;;;;;7.19;64.14;102456.28;105185;1274;72924;-72
2022/04/17 07:40:25;;;;;;;3.90;2.50;;;;;;;7.39;63.89;102457.50;105280;1271;60362;-68
2022/04/17 07:42:53;;;;;;;4.90;3.00;;;;;;;7.51;60.57;102455.18;105397;1270;60570;-69
2022/04/17 07:45:21;;;;;;;4.00;2.40;;;;;;;7.59;59.22;102451.29;105255;1270;75424;-68
2022/04/17 07:47:49;;;;;;;6.20;3.40;;;;;;;7.64;57.80;102449.34;105271;1271;72825;-73
2022/04/17 07:50:21;;;;;;;2.90;1.80;;;;;;;7.76;58.38;102448.81;105093;1271;73995;-71
2022/04/17 07:52:47;;;;;;;4.30;2.20;;;;;;;7.82;55.88;102449.83;105284;1271;60617;-69
2022/04/17 07:55:15;;;;;;;5.70;2.40;;;;;;;7.78;54.68;102449.37;105225;1271;61806;-71
2022/04/17 07:58:01;;;;;;;5.30;3.10;;;;;;;7.79;54.46;102452.66;105194;1271;75271;-68
2022/04/17 08:00:32;;;;;;;6.00;3.30;;;;;;;7.88;54.95;102445.98;105002;1271;72412;-72
2022/04/17 08:03:35;;;;;;;3.80;2.50;;;;;;;8.03;54.86;102448.91;105036;1274;73037;-68
2022/04/17 08:06:06;;;;;;;5.70;2.70;;;;;;;8.16;54.85;102445.84;105239;1271;61710;-69
2022/04/17 08:08:34;;;;;;;5.10;2.80;;;;;;;8.31;55.51;102443.61;105221;1271;61459;-69
2022/04/17 08:11:04;;;;;;;4.50;2.60;;;;;;;8.48;55.64;102440.93;105213;1271;74285;-70
2022/04/17 08:13:32;;;;;;;4.90;2.10;;;;;;;8.67;55.61;102439.15;105243;1271;71589;-68
2022/04/17 08:15:59;;;;;;;4.60;2.50;;;;;;;8.78;53.88;102434.00;105313;1271;74014;-74
2022/04/17 08:18:26;;;;;;;5.70;2.30;;;;;;;8.91;54.10;102433.16;105162;1271;61326;-71
2022/04/17 08:20:52;;;;;;;3.90;2.60;;;;;;;9.02;52.14;102427.40;105087;1272;60538;-68
2022/04/17 08:23:19;;;;;;;6.70;2.80;;;;;;;9.07;50.87;102423.98;105176;1271;60583;-70
2022/04/17 08:25:46;;;;;;;4.60;2.50;;;;;;;9.18;51.88;102426.27;105005;1271;71336;-71
2022/04/17 08:28:13;;;;;;;4.60;2.50;;;;;;;9.30;51.40;102422.65;105225;1271;73081;-68
2022/04/17 08:30:40;;;;;;;3.10;2.00;;;;;;;9.43;51.46;102419.48;105435;1271;60463;-70
2022/04/17 08:33:08;;;;;;;3.00;1.70;;;;;;;9.61;51.52;102416.27;105746;1271;61495;-69
2022/04/17 08:35:35;;;;;;;3.40;2.10;;;;;;;9.79;49.58;102419.36;105442;1271;75485;-70
2022/04/17 08:38:03;;;;;;;4.20;1.70;;;;;;;9.97;47.91;102420.15;105421;1271;72380;-67
2022/04/17 08:40:30;;;;;;;2.90;1.90;;;;;;;10.08;45.42;102418.92;105103;1274;73941;-69
2022/04/17 08:42:58;;;;;;;4.10;1.70;;;;;;;10.16;43.85;102415.77;105289;1271;61117;-66
2022/04/17 08:45:26;;;;;;;4.70;2.20;;;;;;;10.22;43.60;102414.94;105281;1270;61686;-69
2022/04/17 08:47:54;;;;;;;4.60;2.00;;;;;;;10.29;42.55;102410.62;105264;1271;73890;-68
2022/04/17 08:50:22;;;;;;;3.10;1.90;;;;;;;10.33;42.87;102410.46;105567;1272;71456;-70
2022/04/17 08:52:51;;;;;;;3.70;2.00;;;;;;;10.40;42.35;102406.36;104982;1271;72955;-66
2022/04/17 08:55:18;;;;;;;3.30;2.00;;;;;;;10.50;42.66;102402.67;105309;1271;61608;-67
2022/04/17 08:57:48;;;;;;;2.50;1.70;;;;;;;10.58;42.15;102404.41;105094;1271;61852;-69
2022/04/17 09:00:17;;;;;;;2.50;1.70;;;;;;;10.70;42.93;102402.46;105331;1271;75214;-68
2022/04/17 09:02:46;;;;;;;2.80;1.70;;;;;;;10.86;41.82;102399.85;105203;1271;71254;-69
2022/04/17 09:05:16;;;;;;;2.70;1.80;;;;;;;10.94;39.64;102395.06;105126;1271;71874;-70
2022/04/17 09:07:49;;;;;;;3.90;1.90;;;;;;;10.97;40.08;102393.17;105064;1272;61662;-68
2022/04/17 09:10:36;;;;;;;2.90;1.70;;;;;;;11.03;39.01;102385.14;105052;1271;61680;-70
2022/04/17 09:13:04;;;;;;;3.60;2.30;;;;;;;11.09;37.74;102385.98;105224;1271;75326;-69
2022/04/17 09:15:37;;;;;;;3.60;2.00;;;;;;;11.20;38.42;102379.67;105223;1272;71373;-74
2022/04/17 09:18:08;;;;;;;2.90;1.80;;;;;;;11.32;38.70;102381.30;105096;1274;72964;-72
2022/04/17 09:20:45;;;;;;;4.20;1.60;;;;;;;11.42;38.22;102380.48;105006;1271;60466;-71
2022/04/17 09:23:12;;;;;;;4.20;1.90;;;;;;;11.48;36.55;102382.82;105074;1271;61669;-68
2022/04/17 09:25:39;;;;;;;4.10;2.80;;;;;;;11.58;37.90;102381.20;105071;1271;74166;-70
2022/04/17 09:28:07;;;;;;;5.50;2.80;;;;;;;11.69;37.49;102374.17;105270;1271;72083;-70
2022/04/17 09:30:42;;;;;;;;;;;;;;;11.81;38.04;102372.36;105169;1271;73898;-70
2022/04/17 09:33:10;;;;;;;;;;;;;;;11.86;38.12;102372.30;105000;1271;61798;-71
2022/04/17 09:35:37;;;;;;;;;;;;;;;11.91;38.31;102372.70;105328;1271;60437;-69
2022/04/17 09:38:05;;;;;;;;;;;;;;;11.98;37.30;102374.73;104863;1272;73723;-69
2022/04/17 09:40:32;;;;;;;;;;;;;;;12.08;37.22;102368.13;104819;1271;396190;-68
2022/04/17 09:43:08;;;;;;;;;;;;;;;12.19;37.38;102366.92;105245;1271;73861;-68
2022/04/17 09:45:54;;;;;;;;;;;;;;;12.26;36.38;102363.81;105309;1271;60599;-67
2022/04/17 09:48:21;;;;;;;;;;;;;;;12.37;35.05;102354.80;105231;1271;60489;-69
2022/04/17 09:50:47;;;;;;;;;;;;;;;12.43;34.27;102352.55;105161;1271;60624;-70
2022/04/17 09:53:36;;;;;;;;;;;;;;;12.44;32.15;102344.34;105348;1270;60704;-71
2022/04/17 09:56:10;;;;;;;;;;;;;;;12.47;34.03;102341.58;105300;1271;72853;-68
2022/04/17 09:58:48;;;;;;;;;;;;;;;12.61;34.12;102332.17;105254;1271;61197;-69
2022/04/17 10:01:16;;;;;;;;;;;;;;;12.75;33.07;102331.40;105174;1271;61754;-70
2022/04/17 10:03:43;;;;;;;;;;;;;;;12.84;32.87;102326.73;105231;1271;74969;-69
2022/04/17 10:06:11;;;;;;;;;;;;;;;12.92;32.62;102321.23;105062;1271;72734;-69
2022/04/17 10:08:39;;;;;;;;;;;;;;;13.05;33.66;102317.45;105213;1271;74586;-70
2022/04/17 10:11:06;;;;;;;;;;;;;;;13.18;31.47;102314.09;105148;1271;61051;-71
2022/04/17 10:13:33;;;;;;;;;;;;;;;13.23;30.41;102312.79;104900;1274;60415;-68
2022/04/17 10:16:01;;;;;;;;;;;;;;;13.23;29.80;102311.39;105041;1271;73917;-70
2022/04/17 10:18:32;;;;;;;;;;;;;;;13.27;30.28;102310.52;104995;1271;72366;-73
2022/04/17 10:20:59;;;;;;;;;;;;;;;13.31;29.57;102307.67;104862;1271;73001;-69
2022/04/17 10:23:27;;;;;;;;;;;;;;;13.28;28.10;102303.70;104855;1274;60457;-71
2022/04/17 10:25:57;;;;;;;;;;;;;;;13.26;28.78;102300.52;105303;1270;61666;-69
2022/04/17 10:28:26;;;;;;;;;;;;;;;13.26;28.25;102293.90;104897;1271;73351;-70
2022/04/17 10:31:08;;;;;;;;;;;;;;;13.30;29.82;102287.65;105068;1271;71358;-69
2022/04/17 10:33:49;;;;;;;;;;;;;;;13.32;29.33;102286.79;105054;1271;72784;-69
2022/04/17 10:36:21;;;;;;;;;;;;;;;13.38;28.52;102280.80;105024;1271;60528;-70
2022/04/17 10:39:02;;;;;;;;;;;;;;;13.48;29.02;102279.84;105295;1270;61140;-69
2022/04/17 10:41:28;;;;;;;;;;;;;;;13.56;29.00;102277.56;105220;1271;74150;-68
2022/04/17 10:43:56;;;;;;;;;;;;;;;13.62;29.09;102273.20;105193;1271;61161;-71
2022/04/17 10:46:23;;;;;;;;;;;;;;;13.73;29.89;102273.54;104969;1271;73278;-69
2022/04/17 10:48:51;;;;;;;;;;;;;;;13.85;30.22;102264.27;105202;1271;60484;-69
2022/04/17 10:51:29;;;;;;;;;;;;;;;13.94;29.63;102264.96;105231;1271;60533;-70
2022/04/17 10:54:05;;;;;;;;;;;;;;;13.99;28.42;102262.52;104994;1271;73897;-70
2022/04/17 10:56:33;;;;;;;;;;;;;;;14.03;28.31;102250.36;105010;1271;72796;-71
2022/04/17 10:59:06;;;;;;;;;;;;;;;14.00;28.30;102248.42;104889;1271;73101;-73
2022/04/17 11:01:41;;;;;;;;;;;;;;;14.05;28.93;102245.01;104990;1271;61731;-70
2022/04/17 11:04:18;;;;;;;;;;;;;;;14.16;29.70;102238.71;105077;1271;60324;-69
2022/04/17 11:06:45;;;;;;;;;;;;;;;14.22;29.65;102235.36;104992;1271;73917;-68
2022/04/17 11:09:13;;;;;;;;;;;;;;;14.26;29.88;102229.11;104932;1271;70896;-69
2022/04/17 11:11:41;;;;;;;;;;;;;;;14.31;29.67;102224.11;105187;1271;72952;-68
2022/04/17 11:14:19;;;;;;;;;;;;;;;14.34;30.41;102223.66;104996;1271;61607;-69
2022/04/17 11:16:48;;;;;;;;;;;;;;;14.44;30.17;102224.32;105027;1271;60513;-69
2022/04/17 11:19:15;;;;;;;;;;;;;;;14.50;27.71;102223.73;105138;1271;75108;-69
2022/04/17 11:21:43;;;;;;;;;;;;;;;14.50;28.08;102218.05;105251;1271;71120;-67
2022/04/17 11:24:10;;;;;;;;;;;;;;;14.55;29.94;102215.73;105016;1274;72931;-69
2022/04/17 11:26:54;;;;;;;;;;;;;;;14.68;29.61;102208.05;105227;1271;60564;-69
2022/04/17 11:29:38;;;;;;;;;;;;;;;14.84;30.12;102208.93;105070;1271;60437;-68
2022/04/17 11:32:27;;;;;;;;;;;;;;;14.94;29.86;102204.05;104914;1274;75216;-69
2022/04/17 11:34:55;;;;;;;;;;;;;;;15.00;29.07;102205.33;105260;1271;69794;-69
2022/04/17 11:37:22;;;;;;;;;;;;;;;15.11;29.00;102200.31;105243;1271;71918;-69
2022/04/17 11:39:49;;;;;;;;;;;;;;;15.22;28.68;102195.50;105256;1271;60528;-69
2022/04/17 11:42:16;;;;;;;;;;;;;;;15.34;28.73;102191.45;104919;1274;60423;-70
2022/04/17 11:44:43;;;;;;;;;;;;;;;15.46;28.50;102188.48;105119;1270;74217;-68
2022/04/17 11:47:14;;;;;;;;;;;;;;;15.60;27.65;102185.92;105047;1271;71698;-68
2022/04/17 11:49:41;;;;;;;;;;;;;;;15.79;27.71;102181.38;104961;1271;73778;-70
2022/04/17 11:52:21;;;;;;;;;;;;;;;15.94;27.59;102177.99;104987;1271;61368;-69